createdAt,value
2023-06-09T00:05:27.003Z,100619.21
2023-06-09T00:07:55.040Z,100615.40
2023-06-09T00:10:21.791Z,100616.80
2023-06-09T00:12:48.630Z,100615.93
2023-06-09T00:15:16.418Z,100623.15
2023-06-09T00:17:43.700Z,100624.39
2023-06-09T00:20:11.014Z,100624.92
2023-06-09T00:22:49.715Z,100624.23
2023-06-09T00:29:34.972Z,100626.17
2023-06-09T00:32:01.828Z,100625.34
2023-06-09T00:34:28.586Z,100624.11
2023-06-09T00:36:55.397Z,100623.20
2023-06-09T00:43:42.142Z,100615.14
2023-06-09T00:46:09.556Z,100609.52
2023-06-09T00:48:37.680Z,100605.67
2023-06-09T00:51:04.592Z,100602.12
2023-06-09T00:53:31.998Z,100595.23
2023-06-09T00:55:58.848Z,100595.05
2023-06-09T00:58:25.970Z,100592.33
2023-06-09T01:00:52.847Z,100591.29
2023-06-09T01:07:56.540Z,100591.95
2023-06-09T01:10:41.933Z,100595.97
2023-06-09T01:13:29.009Z,100593.59
2023-06-09T01:16:06.890Z,100592.18
2023-06-09T01:18:36.911Z,100590.58
2023-06-09T01:21:07.815Z,100587.53
2023-06-09T01:23:46.277Z,100586.33
2023-06-09T01:26:15.517Z,100584.48
2023-06-09T01:28:44.485Z,100581.00
2023-06-09T01:31:12.975Z,100580.21
2023-06-09T01:33:40.708Z,100572.31
2023-06-09T01:36:07.986Z,100573.04
2023-06-09T01:38:34.836Z,100569.04
2023-06-09T01:41:01.732Z,100561.50
2023-06-09T01:43:28.572Z,100561.04
2023-06-09T01:45:57.082Z,100560.76
2023-06-09T01:48:42.522Z,100563.83
2023-06-09T01:51:23.586Z,100563.71
2023-06-09T01:53:59.981Z,100568.83
2023-06-09T01:56:36.008Z,100567.11
2023-06-09T01:59:09.628Z,100571.67
2023-06-09T02:05:58.562Z,100563.67
2023-06-09T02:08:29.815Z,100559.75
2023-06-09T02:10:56.939Z,100558.04
2023-06-09T02:13:24.268Z,100558.09
2023-06-09T02:15:51.298Z,100560.36
2023-06-09T02:18:22.859Z,100566.20
2023-06-09T02:20:50.880Z,100561.98
2023-06-09T02:23:25.052Z,100562.62
2023-06-09T02:25:52.321Z,100569.43
2023-06-09T02:28:19.319Z,100567.46
2023-06-09T02:30:46.946Z,100566.08
2023-06-09T02:37:30.004Z,100556.80
2023-06-09T02:39:56.842Z,100558.24
2023-06-09T02:42:23.680Z,100557.73
2023-06-09T02:44:50.475Z,100563.72
2023-06-09T02:47:17.684Z,100563.77
2023-06-09T02:49:44.749Z,100560.62
2023-06-09T02:56:25.438Z,100568.55
2023-06-09T02:58:54.455Z,100563.34
2023-06-09T03:01:22.192Z,100559.97
2023-06-09T03:03:51.018Z,100552.35
2023-06-09T03:06:18.669Z,100556.52
2023-06-09T03:08:45.676Z,100559.64
2023-06-09T03:11:12.832Z,100558.14
2023-06-09T03:13:39.920Z,100554.97
2023-06-09T03:16:07.592Z,100557.67
2023-06-09T03:22:50.054Z,100553.79
2023-06-09T03:29:37.818Z,100554.62
2023-06-09T03:32:04.996Z,100553.84
2023-06-09T03:34:33.105Z,100558.77
2023-06-09T03:37:02.283Z,100558.64
2023-06-09T03:39:47.640Z,100556.89
2023-06-09T03:42:17.369Z,100555.88
2023-06-09T03:44:44.280Z,100560.27
2023-06-09T03:47:11.107Z,100561.28
2023-06-09T03:49:39.100Z,100562.23
2023-06-09T03:52:07.623Z,100557.22
2023-06-09T03:54:35.765Z,100558.73
2023-06-09T03:57:02.935Z,100558.06
2023-06-09T04:03:44.348Z,100560.34
2023-06-09T04:06:11.290Z,100561.29
2023-06-09T04:08:38.158Z,100565.84
2023-06-09T04:11:04.995Z,100569.95
2023-06-09T04:13:31.756Z,100569.52
2023-06-09T04:15:58.922Z,100568.53
2023-06-09T04:18:26.368Z,100568.44
2023-06-09T04:25:27.167Z,100573.64
2023-06-09T04:32:18.287Z,100580.71
2023-06-09T04:34:49.718Z,100579.81
2023-06-09T04:41:38.866Z,100582.55
2023-06-09T04:44:07.538Z,100580.52
2023-06-09T04:46:42.778Z,100581.63
2023-06-09T04:49:14.662Z,100583.65
2023-06-09T04:51:49.726Z,100584.30
2023-06-09T04:54:30.654Z,100585.90
2023-06-09T04:57:03.027Z,100587.37
2023-06-09T04:59:31.200Z,100588.21
2023-06-09T05:01:59.094Z,100587.98
2023-06-09T05:04:27.124Z,100591.79
2023-06-09T05:06:54.406Z,100592.86
2023-06-09T05:09:22.212Z,100596.06
2023-06-09T05:11:49.005Z,100591.14
2023-06-09T05:14:16.001Z,100593.21
2023-06-09T05:16:47.262Z,100593.47
2023-06-09T05:19:14.686Z,100597.45
2023-06-09T05:26:01.850Z,100609.38
2023-06-09T05:28:28.734Z,100612.89
2023-06-09T05:30:56.222Z,100611.31
2023-06-09T05:33:23.590Z,100613.12
2023-06-09T05:35:51.093Z,100615.05
2023-06-09T05:38:19.045Z,100617.67
2023-06-09T05:40:45.925Z,100618.23
2023-06-09T05:43:12.710Z,100617.38
2023-06-09T05:45:39.561Z,100620.23
2023-06-09T05:48:06.547Z,100623.57
2023-06-09T05:50:33.505Z,100625.41
2023-06-09T05:53:00.202Z,100629.19
2023-06-09T05:55:27.142Z,100635.14
2023-06-09T05:57:53.931Z,100633.88
2023-06-09T06:00:20.990Z,100631.75
2023-06-09T06:02:48.260Z,100630.05
2023-06-09T06:05:15.243Z,100635.80
2023-06-09T06:07:42.426Z,100638.60
2023-06-09T06:10:09.787Z,100634.91
2023-06-09T06:12:36.904Z,100636.63
2023-06-09T06:15:03.995Z,100635.70
2023-06-09T06:17:30.856Z,100640.09
2023-06-09T06:19:58.653Z,100641.75
2023-06-09T06:22:26.184Z,100639.37
2023-06-09T06:24:52.905Z,100639.91
2023-06-09T06:27:19.700Z,100645.48
2023-06-09T06:29:46.698Z,100644.30
2023-06-09T06:32:13.514Z,100639.73
2023-06-09T06:34:40.436Z,100640.36
2023-06-09T06:37:07.580Z,100644.30
2023-06-09T06:39:34.770Z,100641.55
2023-06-09T06:42:01.829Z,100640.04
2023-06-09T06:44:33.202Z,100641.84
2023-06-09T06:46:59.986Z,100642.52
2023-06-09T06:49:26.760Z,100645.51
2023-06-09T06:51:57.007Z,100650.52
2023-06-09T06:54:23.808Z,100648.11
2023-06-09T06:56:50.712Z,100650.80
2023-06-09T06:59:17.555Z,100645.77
2023-06-09T07:01:44.432Z,100646.52
2023-06-09T07:04:11.302Z,100645.65
2023-06-09T07:06:39.129Z,100646.28
2023-06-09T07:09:06.291Z,100649.89
2023-06-09T07:11:33.642Z,100656.63
2023-06-09T07:14:00.626Z,100659.85
2023-06-09T07:16:27.500Z,100664.27
2023-06-09T07:18:54.329Z,100666.31
2023-06-09T07:21:21.101Z,100669.09
2023-06-09T07:23:47.950Z,100673.19
2023-06-09T07:26:14.841Z,100672.34
2023-06-09T07:28:41.705Z,100677.35
2023-06-09T07:31:10.883Z,100681.46
2023-06-09T07:33:38.898Z,100684.67
2023-06-09T07:36:05.949Z,100689.08
2023-06-09T07:38:32.659Z,100687.68
2023-06-09T07:40:59.457Z,100692.86
2023-06-09T07:43:26.890Z,100687.73
2023-06-09T07:45:53.871Z,100692.02
2023-06-09T07:48:20.698Z,100687.98
2023-06-09T07:51:00.807Z,100691.81
2023-06-09T07:53:29.095Z,100685.13
2023-06-09T07:55:56.856Z,100687.29
2023-06-09T07:58:23.620Z,100687.50
2023-06-09T08:00:52.332Z,100687.19
2023-06-09T08:03:19.545Z,100687.84
2023-06-09T08:05:47.769Z,100681.55
2023-06-09T08:08:16.601Z,100683.34
2023-06-09T08:10:43.556Z,100679.84
2023-06-09T08:13:12.095Z,100685.73
2023-06-09T08:15:39.382Z,100687.99
2023-06-09T08:18:06.398Z,100691.02
2023-06-09T08:20:33.702Z,100689.09
2023-06-09T08:23:00.493Z,100695.70
2023-06-09T08:25:27.892Z,100692.50
2023-06-09T08:27:54.622Z,100693.36
2023-06-09T08:30:21.384Z,100689.11
2023-06-09T08:32:48.192Z,100683.53
2023-06-09T08:35:15.112Z,100685.41
2023-06-09T08:37:43.232Z,100684.23
2023-06-09T08:40:10.962Z,100682.35
2023-06-09T08:42:40.495Z,100674.75
2023-06-09T08:45:09.431Z,100671.84
2023-06-09T08:47:37.725Z,100674.08
2023-06-09T08:50:08.419Z,100677.91
2023-06-09T08:52:36.226Z,100677.52
2023-06-09T08:55:05.254Z,100681.15
2023-06-09T08:57:33.561Z,100676.30
2023-06-09T09:00:00.471Z,100681.40
2023-06-09T09:02:27.357Z,100681.52
2023-06-09T09:04:54.996Z,100680.83
2023-06-09T09:07:22.092Z,100677.91
2023-06-09T09:09:48.901Z,100679.95
2023-06-09T09:12:15.666Z,100676.70
2023-06-09T09:14:46.408Z,100677.98
2023-06-09T09:17:14.640Z,100674.83
2023-06-09T09:19:47.016Z,100675.87
2023-06-09T09:22:14.337Z,100676.54
2023-06-09T09:24:44.499Z,100671.59
2023-06-09T09:27:19.877Z,100668.19
2023-06-09T09:29:47.931Z,100664.83
2023-06-09T09:32:16.651Z,100667.33
2023-06-09T09:34:46.445Z,100661.63
2023-06-09T09:37:18.080Z,100666.45
2023-06-09T09:39:49.716Z,100660.34
2023-06-09T09:42:17.579Z,100658.65
2023-06-09T09:44:50.416Z,100656.20
2023-06-09T09:47:18.366Z,100654.10
2023-06-09T09:50:00.304Z,100648.88
2023-06-09T09:52:29.202Z,100642.88
2023-06-09T09:54:57.679Z,100638.81
2023-06-09T09:57:26.794Z,100639.11
2023-06-09T09:59:54.032Z,100640.93
2023-06-09T10:02:30.690Z,100639.85
2023-06-09T10:05:04.950Z,100640.14
2023-06-09T10:07:39.224Z,100635.38
2023-06-09T10:10:09.872Z,100631.95
2023-06-09T10:12:38.866Z,100632.96
2023-06-09T10:15:09.917Z,100628.61
2023-06-09T10:17:38.015Z,100625.20
2023-06-09T10:20:06.425Z,100623.08
2023-06-09T10:22:33.355Z,100619.51
2023-06-09T10:25:00.635Z,100620.05
2023-06-09T10:27:27.929Z,100614.70
2023-06-09T10:29:54.790Z,100615.36
2023-06-09T10:32:27.443Z,100613.34
2023-06-09T10:34:57.632Z,100613.93
2023-06-09T10:37:34.273Z,100607.52
2023-06-09T10:40:26.738Z,100603.98
2023-06-09T10:43:22.611Z,100603.76
2023-06-09T10:45:57.409Z,100602.27
2023-06-09T10:48:56.782Z,100603.98
2023-06-09T10:51:26.560Z,100602.84
2023-06-09T10:54:08.727Z,100598.63
2023-06-09T10:56:36.265Z,100598.58
2023-06-09T10:59:04.253Z,100596.82
2023-06-09T11:01:34.127Z,100592.25
2023-06-09T11:04:01.362Z,100589.84
2023-06-09T11:06:28.205Z,100590.70
2023-06-09T11:09:09.654Z,100590.13
2023-06-09T11:11:53.588Z,100588.72
2023-06-09T11:14:46.057Z,100583.20
2023-06-09T11:17:32.106Z,100577.54
2023-06-09T11:20:12.176Z,100577.13
2023-06-09T11:22:42.682Z,100579.73
2023-06-09T11:25:31.340Z,100573.27
2023-06-09T11:27:58.361Z,100570.98
2023-06-09T11:30:26.511Z,100569.19
2023-06-09T11:33:04.679Z,100569.26
2023-06-09T11:35:31.967Z,100573.44
2023-06-09T11:38:04.303Z,100570.54
2023-06-09T11:40:32.771Z,100568.55
2023-06-09T11:43:01.308Z,100568.67
2023-06-09T11:45:31.756Z,100567.27
2023-06-09T11:48:04.481Z,100567.59
2023-06-09T11:50:41.384Z,100572.02
2023-06-09T11:53:11.070Z,100565.00
2023-06-09T11:55:38.880Z,100560.29
2023-06-09T11:58:10.001Z,100559.16
2023-06-09T12:00:42.591Z,100565.41
2023-06-09T12:03:11.798Z,100558.21
2023-06-09T12:05:39.198Z,100557.90
2023-06-09T12:08:12.851Z,100558.23
2023-06-09T12:10:39.698Z,100558.95
2023-06-09T12:13:07.529Z,100555.61
2023-06-09T12:15:34.886Z,100554.67
2023-06-09T12:18:03.602Z,100551.41
2023-06-09T12:20:35.291Z,100546.56
2023-06-09T12:23:04.725Z,100544.25
2023-06-09T12:25:36.421Z,100541.52
2023-06-09T12:28:16.432Z,100537.86
2023-06-09T12:30:49.015Z,100528.57
2023-06-09T12:33:19.776Z,100521.71
2023-06-09T12:35:56.016Z,100515.06
2023-06-09T12:38:29.971Z,100507.10
2023-06-09T12:41:06.192Z,100506.70
2023-06-09T12:43:52.923Z,100502.59
2023-06-09T12:46:29.263Z,100498.80
2023-06-09T12:49:05.074Z,100495.77
2023-06-09T12:51:40.705Z,100490.63
2023-06-09T12:54:08.989Z,100486.05
2023-06-09T12:56:35.802Z,100488.53
2023-06-09T12:59:03.782Z,100485.02
2023-06-09T13:01:33.819Z,100477.10
2023-06-09T13:04:00.850Z,100475.77
2023-06-09T13:06:28.023Z,100473.85
2023-06-09T13:08:57.054Z,100467.86
2023-06-09T13:11:24.666Z,100468.42
2023-06-09T13:13:53.185Z,100469.81
2023-06-09T13:16:20.460Z,100464.66
2023-06-09T13:18:47.484Z,100472.77
2023-06-09T13:21:14.361Z,100470.75
2023-06-09T13:23:41.179Z,100470.17
2023-06-09T13:26:07.984Z,100468.54
2023-06-09T13:28:34.860Z,100468.91
2023-06-09T13:31:01.746Z,100463.76
2023-06-09T13:33:28.790Z,100461.87
2023-06-09T13:35:55.667Z,100460.17
2023-06-09T13:38:22.543Z,100456.00
2023-06-09T13:40:50.033Z,100455.52
2023-06-09T13:43:17.948Z,100449.45
2023-06-09T13:45:45.016Z,100445.99
2023-06-09T13:48:12.587Z,100442.96
2023-06-09T13:50:40.362Z,100443.11
2023-06-09T13:53:07.452Z,100440.36
2023-06-09T13:55:34.243Z,100436.86
2023-06-09T13:58:01.076Z,100431.79
2023-06-09T14:00:28.026Z,100433.45
2023-06-09T14:02:55.082Z,100431.25
2023-06-09T14:05:25.183Z,100422.94
2023-06-09T14:07:52.144Z,100422.02
2023-06-09T14:10:19.424Z,100421.23
2023-06-09T14:12:49.052Z,100416.14
2023-06-09T14:17:51.085Z,100414.02
2023-06-09T14:20:21.930Z,100410.27
2023-06-09T14:22:51.106Z,100406.59
2023-06-09T14:25:23.169Z,100396.51
2023-06-09T14:27:53.823Z,100394.66
2023-06-09T14:30:22.566Z,100396.46
2023-06-09T14:32:51.612Z,100395.54
2023-06-09T14:35:26.343Z,100392.72
2023-06-09T14:37:58.197Z,100385.34
2023-06-09T14:40:26.328Z,100381.55
2023-06-09T14:42:53.159Z,100377.36
2023-06-09T14:45:22.134Z,100374.27
2023-06-09T14:48:10.165Z,100376.34
2023-06-09T14:50:49.223Z,100371.66
2023-06-09T14:53:16.413Z,100365.58
2023-06-09T14:55:48.022Z,100361.98
2023-06-09T14:58:17.244Z,100359.12
2023-06-09T15:04:59.624Z,100358.49
2023-06-09T15:11:47.323Z,100360.68
2023-06-09T15:14:14.075Z,100361.36
2023-06-09T15:16:40.860Z,100357.92
2023-06-09T15:19:07.706Z,100361.55
2023-06-09T15:25:54.683Z,100358.41
2023-06-09T15:28:22.327Z,100357.54
2023-06-09T15:30:50.305Z,100352.98
2023-06-09T15:37:30.679Z,100354.50
2023-06-09T15:44:25.305Z,100349.59
2023-06-09T15:46:52.191Z,100343.64
2023-06-09T15:49:19.139Z,100348.69
2023-06-09T15:51:45.876Z,100348.80
2023-06-09T15:54:12.793Z,100348.06
2023-06-09T15:56:39.685Z,100349.79
2023-06-09T15:59:06.751Z,100353.73
2023-06-09T16:01:33.578Z,100347.43
2023-06-09T16:04:00.449Z,100344.34
2023-06-09T16:06:27.345Z,100341.66
2023-06-09T16:08:54.083Z,100341.41
2023-06-09T16:11:20.877Z,100341.57
2023-06-09T16:13:47.957Z,100341.48
2023-06-09T16:16:15.220Z,100344.91
2023-06-09T16:18:43.396Z,100344.84
2023-06-09T16:25:25.865Z,100340.00
2023-06-09T16:27:52.976Z,100338.23
2023-06-09T16:30:19.706Z,100343.23
2023-06-09T16:32:47.408Z,100341.80
2023-06-09T16:35:14.438Z,100343.41
2023-06-09T16:37:41.645Z,100345.04
2023-06-09T16:40:08.867Z,100344.50
2023-06-09T16:46:57.249Z,100354.34
2023-06-09T16:49:24.106Z,100360.41
2023-06-09T16:56:10.801Z,100362.42
2023-06-09T16:58:37.616Z,100361.04
2023-06-09T17:01:04.360Z,100361.83
2023-06-09T17:03:31.307Z,100363.70
2023-06-09T17:05:58.097Z,100365.77
2023-06-09T17:12:45.827Z,100372.04
2023-06-09T17:15:13.016Z,100373.29
2023-06-09T17:17:39.929Z,100373.94
2023-06-09T17:20:07.611Z,100378.31
2023-06-09T17:22:34.428Z,100381.09
2023-06-09T17:25:01.754Z,100382.45
2023-06-09T17:27:28.468Z,100384.05
2023-06-09T17:29:55.401Z,100389.95
2023-06-09T17:32:22.399Z,100386.94
2023-06-09T17:34:49.152Z,100389.19
2023-06-09T17:37:16.060Z,100389.93
2023-06-09T17:39:43.463Z,100398.94
2023-06-09T17:42:11.729Z,100400.95
2023-06-09T17:44:38.716Z,100404.46
2023-06-09T17:47:06.972Z,100409.92
2023-06-09T17:49:34.802Z,100407.70
2023-06-09T17:52:01.862Z,100409.55
2023-06-09T17:54:32.162Z,100408.63
2023-06-09T18:01:19.475Z,100410.93
2023-06-09T18:03:46.460Z,100412.58
2023-06-09T18:06:13.422Z,100413.52
2023-06-09T18:08:40.847Z,100414.81
2023-06-09T18:11:07.719Z,100407.02
2023-06-09T18:13:34.550Z,100406.48
2023-06-09T18:16:01.721Z,100408.63
2023-06-09T18:18:28.678Z,100405.92
2023-06-09T18:20:55.570Z,100411.77
2023-06-09T18:23:22.438Z,100415.11
2023-06-09T18:25:52.764Z,100414.65
2023-06-09T18:32:39.881Z,100415.02
2023-06-09T18:35:07.762Z,100414.63
2023-06-09T18:37:34.808Z,100414.95
2023-06-09T18:44:20.192Z,100417.48
2023-06-09T18:46:47.445Z,100421.06
2023-06-09T18:49:14.300Z,100422.28
2023-06-09T18:51:41.645Z,100424.98
2023-06-09T18:54:08.552Z,100418.94
2023-06-09T18:56:36.386Z,100418.95
2023-06-09T18:59:03.296Z,100424.29
2023-06-09T19:01:30.643Z,100425.11
2023-06-09T19:03:57.951Z,100429.02
2023-06-09T19:06:25.192Z,100430.55
2023-06-09T19:08:52.007Z,100429.87
2023-06-09T19:11:18.986Z,100427.91
2023-06-09T19:13:46.329Z,100430.20
2023-06-09T19:16:13.145Z,100434.85
2023-06-09T19:18:40.081Z,100435.06
2023-06-09T19:21:07.071Z,100435.02
2023-06-09T19:23:34.043Z,100432.84
2023-06-09T19:26:02.033Z,100436.77
2023-06-09T19:28:28.903Z,100440.62
2023-06-09T19:30:55.800Z,100445.02
2023-06-09T19:33:23.029Z,100449.27
2023-06-09T19:35:49.970Z,100454.31
2023-06-09T19:38:17.055Z,100454.13
2023-06-09T19:40:44.076Z,100460.22
2023-06-09T19:43:11.117Z,100462.61
2023-06-09T19:45:37.871Z,100466.05
2023-06-09T19:48:05.053Z,100469.27
2023-06-09T19:50:36.299Z,100470.52
2023-06-09T19:53:03.408Z,100472.24
2023-06-09T19:55:30.355Z,100476.16
2023-06-09T19:57:57.208Z,100474.77
2023-06-09T20:00:24.169Z,100477.11
2023-06-09T20:02:50.992Z,100475.92
2023-06-09T20:05:17.907Z,100473.59
2023-06-09T20:12:06.533Z,100483.77
2023-06-09T20:18:46.846Z,100497.96
2023-06-09T20:21:13.721Z,100502.90
2023-06-09T20:23:43.617Z,100504.27
2023-06-09T20:26:11.746Z,100512.36
2023-06-09T20:28:38.933Z,100511.31
2023-06-09T20:31:06.685Z,100516.52
2023-06-09T20:33:42.465Z,100515.08
2023-06-09T20:36:10.362Z,100521.68
2023-06-09T20:42:57.917Z,100533.23
2023-06-09T20:49:32.041Z,100547.00
2023-06-09T20:51:58.861Z,100549.63
2023-06-09T20:58:46.193Z,100558.56
2023-06-09T21:05:27.724Z,100564.23
2023-06-09T21:07:55.454Z,100567.27
2023-06-09T21:10:24.491Z,100567.80
2023-06-09T21:12:52.421Z,100566.97
2023-06-09T21:15:19.161Z,100572.38
2023-06-09T21:21:59.835Z,100572.95
2023-06-09T21:24:26.710Z,100577.17
2023-06-09T21:26:53.734Z,100578.65
2023-06-09T21:29:20.681Z,100580.08
2023-06-09T21:31:47.617Z,100587.47
2023-06-09T21:34:14.442Z,100592.86
2023-06-09T21:36:41.221Z,100595.14
2023-06-09T21:43:26.960Z,100597.83
2023-06-09T21:45:53.704Z,100595.77
2023-06-09T21:48:20.548Z,100594.27
2023-06-09T21:50:47.642Z,100600.00
2023-06-09T21:57:35.213Z,100605.54
2023-06-09T22:00:02.463Z,100607.66
2023-06-09T22:02:32.022Z,100607.89
2023-06-09T22:04:58.872Z,100604.02
2023-06-09T22:07:25.668Z,100605.33
2023-06-09T22:09:52.702Z,100604.98
2023-06-09T22:12:19.685Z,100604.05
2023-06-09T22:14:47.445Z,100597.77
2023-06-09T22:17:16.314Z,100596.65
2023-06-09T22:19:43.381Z,100595.58
2023-06-09T22:22:10.414Z,100593.42
2023-06-09T22:24:37.151Z,100592.99
2023-06-09T22:27:05.368Z,100591.64
2023-06-09T22:29:32.302Z,100589.75
2023-06-09T22:31:59.346Z,100586.48
2023-06-09T22:34:26.352Z,100584.05
2023-06-09T22:36:53.086Z,100581.45
2023-06-09T22:39:20.270Z,100578.85
2023-06-09T22:41:47.076Z,100576.86
2023-06-09T22:44:14.116Z,100578.30
2023-06-09T22:46:41.042Z,100579.90
2023-06-09T22:49:08.943Z,100578.88
2023-06-09T22:51:36.109Z,100580.71
2023-06-09T22:54:04.577Z,100581.28
2023-06-09T22:56:31.955Z,100582.80
2023-06-09T22:58:58.980Z,100580.84
2023-06-09T23:01:27.766Z,100580.83
2023-06-09T23:03:55.022Z,100576.83
2023-06-09T23:06:34.806Z,100578.67
2023-06-09T23:09:01.540Z,100573.81
2023-06-09T23:11:29.934Z,100574.50
2023-06-09T23:13:56.942Z,100572.03
2023-06-09T23:16:23.820Z,100567.95
2023-06-09T23:18:51.227Z,100561.52
2023-06-09T23:21:19.531Z,100563.21
2023-06-09T23:23:50.888Z,100565.18
2023-06-09T23:26:18.126Z,100564.08
2023-06-09T23:28:45.079Z,100560.63
2023-06-09T23:31:12.022Z,100558.20
2023-06-09T23:33:40.084Z,100557.96
2023-06-09T23:36:07.260Z,100555.90
2023-06-09T23:38:33.987Z,100555.85
2023-06-09T23:41:00.860Z,100552.48
2023-06-09T23:43:27.608Z,100549.88
2023-06-09T23:45:54.468Z,100545.05
2023-06-09T23:48:23.054Z,100547.88
2023-06-09T23:50:50.866Z,100542.59
2023-06-09T23:53:22.407Z,100545.69
2023-06-09T23:55:50.196Z,100544.13
2023-06-09T23:58:18.822Z,100542.64
